createdAt,value
2022-12-25T00:03:32.550Z,3.13
2022-12-25T00:06:04.487Z,3.75
2022-12-25T00:08:33.098Z,3.73
2022-12-25T00:11:01.905Z,3.30
2022-12-25T00:13:29.939Z,3.42
2022-12-25T00:15:58.057Z,3.47
2022-12-25T00:18:26.940Z,3.53
2022-12-25T00:20:59.382Z,2.87
2022-12-25T00:23:29.248Z,3.00
2022-12-25T00:25:57.141Z,3.28
2022-12-25T00:28:26.193Z,3.42
2022-12-25T00:30:53.883Z,4.65
2022-12-25T00:33:21.487Z,5.30
2022-12-25T00:35:59.300Z,4.95
2022-12-25T00:38:29.073Z,4.47
2022-12-25T00:41:00.749Z,3.80
2022-12-25T00:43:28.361Z,2.50
2022-12-25T00:45:57.870Z,2.97
2022-12-25T00:48:26.536Z,2.83
2022-12-25T00:50:56.939Z,3.20
2022-12-25T00:53:25.173Z,2.83
2022-12-25T00:55:56.532Z,2.80
2022-12-25T01:02:19.386Z,2.88
2022-12-25T01:04:47.483Z,2.30
2022-12-25T01:07:17.064Z,3.17
2022-12-25T01:10:11.275Z,2.80
2022-12-25T01:12:45.006Z,2.60
2022-12-25T01:15:14.438Z,3.03
2022-12-25T01:17:42.351Z,2.83
2022-12-25T01:20:11.581Z,2.95
2022-12-25T01:22:39.537Z,3.35
2022-12-25T01:25:08.147Z,3.50
2022-12-25T01:27:36.446Z,3.83
2022-12-25T01:30:06.636Z,3.58
2022-12-25T01:32:34.670Z,3.38
2022-12-25T01:35:02.589Z,3.70
2022-12-25T01:37:30.293Z,3.30
2022-12-25T01:39:58.639Z,3.25
2022-12-25T01:42:26.366Z,3.00
2022-12-25T01:45:36.336Z,2.95
2022-12-25T01:48:08.007Z,3.10
2022-12-25T01:50:38.699Z,2.70
2022-12-25T01:53:08.314Z,2.95
2022-12-25T01:55:37.679Z,2.90
2022-12-25T01:58:05.943Z,2.60
2022-12-25T02:00:35.511Z,2.40
2022-12-25T02:03:04.160Z,2.27
2022-12-25T02:05:34.453Z,2.20
2022-12-25T02:08:04.136Z,2.53
2022-12-25T02:10:32.147Z,1.92
2022-12-25T02:13:02.285Z,2.15
2022-12-25T02:15:41.477Z,2.00
2022-12-25T02:18:15.179Z,2.60
2022-12-25T02:21:04.361Z,2.80
2022-12-25T02:23:50.175Z,2.65
2022-12-25T02:26:37.993Z,2.95
2022-12-25T02:32:15.700Z,2.22
2022-12-25T02:34:53.258Z,1.70
2022-12-25T02:37:27.879Z,1.67
2022-12-25T02:40:01.735Z,1.60
2022-12-25T02:42:57.561Z,1.90
2022-12-25T02:45:50.885Z,1.75
2022-12-25T02:48:38.959Z,1.77
2022-12-25T02:51:28.806Z,2.38
2022-12-25T02:54:18.583Z,1.83
2022-12-25T02:57:06.350Z,2.60
2022-12-25T02:59:55.624Z,3.15
2022-12-25T03:02:43.548Z,2.60
2022-12-25T03:05:48.236Z,2.20
2022-12-25T03:08:21.382Z,2.50
2022-12-25T03:11:13.602Z,2.00
2022-12-25T03:13:44.269Z,1.90
2022-12-25T03:16:30.303Z,2.42
2022-12-25T03:19:00.748Z,2.30
2022-12-25T03:21:46.314Z,2.50
2022-12-25T03:24:31.450Z,2.10
2022-12-25T03:26:59.319Z,1.98
2022-12-25T03:29:48.512Z,1.80
2022-12-25T03:32:27.696Z,1.90
2022-12-25T03:35:23.638Z,2.10
2022-12-25T03:38:17.205Z,2.13
2022-12-25T03:41:19.652Z,2.60
2022-12-25T03:44:12.003Z,2.90
2022-12-25T03:47:06.877Z,2.40
2022-12-25T03:49:59.844Z,2.83
2022-12-25T03:52:47.761Z,2.63
2022-12-25T03:55:36.382Z,2.97
2022-12-25T03:58:22.083Z,3.03
2022-12-25T04:01:07.509Z,2.60
2022-12-25T04:03:51.770Z,1.98
2022-12-25T04:06:37.314Z,2.27
2022-12-25T04:09:24.089Z,5.97
2022-12-25T04:12:09.325Z,5.78
2022-12-25T04:14:54.698Z,4.65
2022-12-25T04:17:39.721Z,3.08
2022-12-25T04:20:26.954Z,2.40
2022-12-25T04:23:12.215Z,2.60
2022-12-25T04:26:00.133Z,2.10
2022-12-25T04:28:45.829Z,2.55
2022-12-25T04:31:31.530Z,2.25
2022-12-25T04:34:16.884Z,2.80
2022-12-25T04:36:46.683Z,3.60
2022-12-25T04:39:14.685Z,5.70
2022-12-25T04:41:43.841Z,6.65
2022-12-25T04:44:12.051Z,6.72
2022-12-25T04:46:40.025Z,5.23
2022-12-25T04:49:07.812Z,3.88
2022-12-25T04:51:35.726Z,3.20
2022-12-25T04:54:03.844Z,3.20
2022-12-25T04:56:31.804Z,3.53
2022-12-25T04:59:03.959Z,3.27
2022-12-25T05:01:31.897Z,2.72
2022-12-25T05:03:59.732Z,3.05
2022-12-25T05:06:27.440Z,2.83
2022-12-25T05:08:55.324Z,3.10
2022-12-25T05:11:23.725Z,3.30
2022-12-25T05:13:51.556Z,3.40
2022-12-25T05:16:22.015Z,3.53
2022-12-25T05:18:50.926Z,5.72
2022-12-25T05:21:19.767Z,10.15
2022-12-25T05:23:50.856Z,4.57
2022-12-25T05:26:21.375Z,4.10
2022-12-25T05:28:49.499Z,4.28
2022-12-25T05:31:18.067Z,4.07
2022-12-25T05:33:50.102Z,4.15
2022-12-25T05:36:19.027Z,4.20
2022-12-25T05:38:46.985Z,4.03
2022-12-25T05:41:14.729Z,4.55
2022-12-25T05:43:42.786Z,4.60
2022-12-25T05:46:11.734Z,4.80
2022-12-25T05:48:39.943Z,4.73
2022-12-25T05:51:12.084Z,4.97
2022-12-25T05:53:40.225Z,4.30
2022-12-25T05:56:09.160Z,4.32
2022-12-25T05:58:39.839Z,4.70
2022-12-25T06:01:13.126Z,4.73
2022-12-25T06:03:42.514Z,4.88
2022-12-25T06:06:12.632Z,4.78
2022-12-25T06:08:41.313Z,5.13
2022-12-25T06:11:10.109Z,5.22
2022-12-25T06:13:38.040Z,4.80
2022-12-25T06:16:07.107Z,5.05
2022-12-25T06:18:36.948Z,4.97
2022-12-25T06:21:07.640Z,4.60
2022-12-25T06:23:38.270Z,4.85
2022-12-25T06:26:07.135Z,4.63
2022-12-25T06:28:35.781Z,4.88
2022-12-25T06:31:07.993Z,5.18
2022-12-25T06:33:36.416Z,4.93
2022-12-25T06:36:09.908Z,4.63
2022-12-25T06:38:39.482Z,3.90
2022-12-25T06:41:08.659Z,4.80
2022-12-25T06:43:36.505Z,4.90
2022-12-25T06:46:05.439Z,5.07
2022-12-25T06:48:34.011Z,4.68
2022-12-25T06:51:02.542Z,4.63
2022-12-25T06:53:38.915Z,5.00
2022-12-25T06:56:15.477Z,5.45
2022-12-25T06:58:44.749Z,5.32
2022-12-25T07:01:18.631Z,5.10
2022-12-25T07:03:48.030Z,4.40
2022-12-25T07:06:16.254Z,5.65
2022-12-25T07:08:43.951Z,5.40
2022-12-25T07:11:13.231Z,6.20
2022-12-25T07:13:41.454Z,5.55
2022-12-25T07:16:09.971Z,6.07
2022-12-25T07:18:38.312Z,5.68
2022-12-25T07:21:10.530Z,4.80
2022-12-25T07:23:38.611Z,5.70
2022-12-25T07:26:07.040Z,5.88
2022-12-25T07:28:36.481Z,5.80
2022-12-25T07:31:06.500Z,5.43
2022-12-25T07:33:34.499Z,5.53
2022-12-25T07:36:02.401Z,6.07
2022-12-25T07:38:30.312Z,5.22
2022-12-25T07:40:58.195Z,5.23
2022-12-25T07:43:26.490Z,5.60
2022-12-25T07:46:00.242Z,5.72
2022-12-25T07:48:28.532Z,6.13
2022-12-25T07:50:59.991Z,6.35
2022-12-25T07:53:28.713Z,5.90
2022-12-25T07:56:00.919Z,6.25
2022-12-25T07:58:29.686Z,5.93
2022-12-25T08:01:04.458Z,6.88
2022-12-25T08:03:33.009Z,5.95
2022-12-25T08:06:02.494Z,7.57
2022-12-25T08:08:31.178Z,5.75
2022-12-25T08:10:59.493Z,6.15
2022-12-25T08:13:28.789Z,5.97
2022-12-25T08:16:00.098Z,5.60
2022-12-25T08:18:30.311Z,6.50
2022-12-25T08:20:58.744Z,5.72
2022-12-25T08:23:27.629Z,5.28
2022-12-25T08:26:00.381Z,6.93
2022-12-25T08:28:32.104Z,5.93
2022-12-25T08:31:01.489Z,4.47
2022-12-25T08:33:29.483Z,5.03
2022-12-25T08:36:03.160Z,4.22
2022-12-25T08:38:31.023Z,4.70
2022-12-25T08:40:59.006Z,5.93
2022-12-25T08:43:27.442Z,5.67
2022-12-25T08:45:55.297Z,5.13
2022-12-25T08:48:24.720Z,6.97
2022-12-25T08:50:53.832Z,5.22
2022-12-25T08:53:22.794Z,5.57
2022-12-25T08:55:51.941Z,4.30
2022-12-25T08:58:19.775Z,4.00
2022-12-25T09:00:47.458Z,4.25
2022-12-25T09:03:15.314Z,3.83
2022-12-25T09:05:44.401Z,4.50
2022-12-25T09:08:12.261Z,3.97
2022-12-25T09:10:39.882Z,3.95
2022-12-25T09:13:07.548Z,5.10
2022-12-25T09:15:36.699Z,4.30
2022-12-25T09:18:04.962Z,4.13
2022-12-25T09:20:32.620Z,4.37
2022-12-25T09:23:01.798Z,3.67
2022-12-25T09:25:29.546Z,3.65
2022-12-25T09:27:57.820Z,3.75
2022-12-25T09:30:25.679Z,3.83
2022-12-25T09:32:53.342Z,4.60
2022-12-25T09:35:21.210Z,4.22
2022-12-25T09:37:49.218Z,4.57
2022-12-25T09:40:23.396Z,4.82
2022-12-25T09:42:57.685Z,6.25
2022-12-25T09:45:28.535Z,5.10
2022-12-25T09:48:00.134Z,4.32
2022-12-25T09:50:44.447Z,4.53
2022-12-25T09:53:20.866Z,8.30
2022-12-25T09:56:00.166Z,13.35
2022-12-25T09:58:29.930Z,7.57
2022-12-25T10:01:05.301Z,4.53
2022-12-25T10:03:47.635Z,6.72
2022-12-25T10:06:22.159Z,5.70
2022-12-25T10:09:08.812Z,7.38
2022-12-25T10:11:53.948Z,5.10
2022-12-25T10:14:31.812Z,4.38
2022-12-25T10:17:16.845Z,7.63
2022-12-25T10:19:50.298Z,6.28
2022-12-25T10:22:25.045Z,5.90
2022-12-25T10:24:55.874Z,3.47
2022-12-25T10:27:31.849Z,4.00
2022-12-25T10:30:00.003Z,6.32
2022-12-25T10:32:27.998Z,6.15
2022-12-25T10:34:56.166Z,4.25
2022-12-25T10:37:26.277Z,11.13
2022-12-25T10:39:53.887Z,6.05
2022-12-25T10:42:35.093Z,5.13
2022-12-25T10:45:05.457Z,7.30
2022-12-25T10:47:38.246Z,5.50
2022-12-25T10:50:11.370Z,4.77
2022-12-25T10:52:52.408Z,4.40
2022-12-25T10:55:26.572Z,5.05
2022-12-25T10:57:59.305Z,4.07
2022-12-25T11:00:30.445Z,4.13
2022-12-25T11:02:59.648Z,4.10
2022-12-25T11:05:29.868Z,3.85
2022-12-25T11:08:00.301Z,3.63
2022-12-25T11:10:31.407Z,2.95
2022-12-25T11:13:02.401Z,3.05
2022-12-25T11:15:38.021Z,3.40
2022-12-25T11:18:18.087Z,3.72
2022-12-25T11:20:50.317Z,3.13
2022-12-25T11:23:20.539Z,2.70
2022-12-25T11:25:56.463Z,2.67
2022-12-25T11:28:26.243Z,1.60
2022-12-25T11:30:58.166Z,1.55
2022-12-25T11:33:30.255Z,2.05
2022-12-25T11:36:02.290Z,2.00
2022-12-25T11:38:30.079Z,2.10
2022-12-25T11:41:01.726Z,1.50
2022-12-25T11:43:37.262Z,1.90
2022-12-25T11:46:12.990Z,1.65
2022-12-25T11:48:45.695Z,1.27
2022-12-25T11:51:15.761Z,1.50
2022-12-25T11:53:48.170Z,1.33
2022-12-25T11:56:19.876Z,1.25
2022-12-25T11:58:51.645Z,1.38
2022-12-25T12:01:28.865Z,1.00
2022-12-25T12:03:57.781Z,1.08
2022-12-25T12:06:32.016Z,1.30
2022-12-25T12:09:06.242Z,1.60
2022-12-25T12:11:38.740Z,1.10
2022-12-25T12:14:21.047Z,1.10
2022-12-25T12:16:49.795Z,0.93
2022-12-25T12:19:27.186Z,1.40
2022-12-25T12:21:57.406Z,2.00
2022-12-25T12:24:29.409Z,5.88
2022-12-25T12:27:03.799Z,2.67
2022-12-25T12:29:39.701Z,2.72
2022-12-25T12:32:21.702Z,2.70
2022-12-25T12:34:50.752Z,4.38
2022-12-25T12:37:25.031Z,3.45
2022-12-25T12:39:56.082Z,5.40
2022-12-25T12:42:27.473Z,7.72
2022-12-25T12:44:59.976Z,4.27
2022-12-25T12:47:34.281Z,3.00
2022-12-25T12:50:03.047Z,6.22
2022-12-25T12:52:35.478Z,3.15
2022-12-25T12:55:06.771Z,3.60
2022-12-25T12:57:40.199Z,4.97
2022-12-25T13:00:18.233Z,8.90
2022-12-25T13:03:04.577Z,4.20
2022-12-25T13:05:40.174Z,4.60
2022-12-25T13:08:19.259Z,2.00
2022-12-25T13:10:50.807Z,8.37
2022-12-25T13:13:22.248Z,3.35
2022-12-25T13:15:52.624Z,1.50
2022-12-25T13:18:22.489Z,1.25
2022-12-25T13:20:55.088Z,2.38
2022-12-25T13:23:28.196Z,1.00
2022-12-25T13:25:57.516Z,0.75
2022-12-25T13:28:26.489Z,0.80
2022-12-25T13:31:02.431Z,1.15
2022-12-25T13:33:30.720Z,0.80
2022-12-25T13:36:00.294Z,1.30
2022-12-25T13:38:29.520Z,1.55
2022-12-25T13:41:16.602Z,1.42
2022-12-25T13:43:46.189Z,0.80
2022-12-25T13:46:16.412Z,1.60
2022-12-25T13:48:44.176Z,1.80
2022-12-25T13:51:16.933Z,1.75
2022-12-25T13:53:44.792Z,2.15
2022-12-25T13:56:15.531Z,1.38
2022-12-25T13:58:44.264Z,1.23
2022-12-25T14:01:19.093Z,1.17
2022-12-25T14:03:48.963Z,1.25
2022-12-25T14:06:20.101Z,1.38
2022-12-25T14:08:49.228Z,4.57
2022-12-25T14:11:19.004Z,4.97
2022-12-25T14:13:49.843Z,10.37
2022-12-25T14:16:20.240Z,9.45
2022-12-25T14:18:56.509Z,5.38
2022-12-25T14:21:29.412Z,3.60
2022-12-25T14:24:00.763Z,4.03
2022-12-25T14:26:31.412Z,2.93
2022-12-25T14:29:16.736Z,2.10
2022-12-25T14:31:49.214Z,3.60
2022-12-25T14:34:19.909Z,2.00
2022-12-25T14:36:50.136Z,3.45
2022-12-25T14:39:31.362Z,3.10
2022-12-25T14:41:59.282Z,3.15
2022-12-25T14:44:33.829Z,2.03
2022-12-25T14:47:13.473Z,1.80
2022-12-25T14:49:41.238Z,1.67
2022-12-25T14:52:16.067Z,1.50
2022-12-25T14:54:47.438Z,1.52
2022-12-25T14:57:28.144Z,2.30
2022-12-25T15:00:00.847Z,5.72
2022-12-25T15:02:41.178Z,3.38
2022-12-25T15:05:31.672Z,1.70
2022-12-25T15:08:06.512Z,1.73
2022-12-25T15:13:23.308Z,1.92
2022-12-25T15:15:57.012Z,1.80
2022-12-25T15:18:29.055Z,2.10
2022-12-25T15:20:57.159Z,1.70
2022-12-25T15:23:25.560Z,3.20
2022-12-25T15:25:54.023Z,2.05
2022-12-25T15:28:21.972Z,3.00
2022-12-25T15:30:50.946Z,2.70
2022-12-25T15:33:19.995Z,4.00
2022-12-25T15:35:49.386Z,5.75
2022-12-25T15:38:18.897Z,4.32
2022-12-25T15:40:48.354Z,3.70
2022-12-25T15:43:40.397Z,2.50
2022-12-25T15:46:04.955Z,2.47
2022-12-25T15:48:32.661Z,4.03
2022-12-25T15:51:01.949Z,5.13
2022-12-25T15:53:29.963Z,4.15
2022-12-25T15:55:57.901Z,2.67
2022-12-25T15:58:25.759Z,3.97
2022-12-25T16:00:53.594Z,3.00
2022-12-25T16:03:21.696Z,2.58
2022-12-25T16:05:49.832Z,2.63
2022-12-25T16:08:19.191Z,4.90
2022-12-25T16:10:48.015Z,3.67
2022-12-25T16:13:15.698Z,4.70
2022-12-25T16:15:45.079Z,2.97
2022-12-25T16:18:13.503Z,2.40
2022-12-25T16:20:41.436Z,2.33
2022-12-25T16:23:09.541Z,2.50
2022-12-25T16:25:38.792Z,2.60
2022-12-25T16:28:09.776Z,4.50
2022-12-25T16:30:38.390Z,3.50
2022-12-25T16:33:08.548Z,4.50
2022-12-25T16:35:37.977Z,5.18
2022-12-25T16:38:06.046Z,3.08
2022-12-25T16:40:34.399Z,3.10
2022-12-25T16:43:03.645Z,5.70
2022-12-25T16:45:31.477Z,4.20
2022-12-25T16:47:59.588Z,4.13
2022-12-25T16:50:27.905Z,3.60
2022-12-25T16:52:55.619Z,6.85
2022-12-25T16:55:29.384Z,4.25
2022-12-25T16:57:58.429Z,4.77
2022-12-25T17:00:28.133Z,4.57
2022-12-25T17:02:57.018Z,3.10
2022-12-25T17:05:25.119Z,8.48
2022-12-25T17:07:53.322Z,5.72
2022-12-25T17:10:21.526Z,6.83
2022-12-25T17:12:49.494Z,5.45
2022-12-25T17:15:17.561Z,5.55
2022-12-25T17:17:46.754Z,5.43
2022-12-25T17:20:14.597Z,6.88
2022-12-25T17:25:28.126Z,4.00
2022-12-25T17:27:56.990Z,3.42
2022-12-25T17:30:26.062Z,4.20
2022-12-25T17:32:59.300Z,4.40
2022-12-25T17:35:30.800Z,3.30
2022-12-25T17:38:03.036Z,3.40
2022-12-25T17:40:34.069Z,3.10
2022-12-25T17:43:03.416Z,2.55
2022-12-25T17:45:31.783Z,4.07
2022-12-25T17:48:03.705Z,3.83
2022-12-25T17:50:35.871Z,4.30
2022-12-25T17:53:07.171Z,4.80
2022-12-25T17:55:36.374Z,3.95
2022-12-25T17:58:15.294Z,4.13
2022-12-25T18:00:46.879Z,4.47
2022-12-25T18:23:31.353Z,4.00
2022-12-25T19:00:57.567Z,2.40
2022-12-25T21:02:52.810Z,3.73
2022-12-25T21:15:54.554Z,3.20
2022-12-25T21:18:33.416Z,3.47
2022-12-25T21:21:11.844Z,4.07
2022-12-25T21:24:07.117Z,3.60
2022-12-25T21:26:54.899Z,3.78
2022-12-25T21:40:31.410Z,3.25
2022-12-25T21:43:09.479Z,3.42
2022-12-25T21:45:50.014Z,3.00
2022-12-25T21:48:23.780Z,2.70
2022-12-25T21:51:12.604Z,3.90
2022-12-25T21:54:04.978Z,5.78
2022-12-25T21:56:49.652Z,4.40
2022-12-25T21:59:54.177Z,4.47
2022-12-25T22:02:39.571Z,4.10
2022-12-25T22:05:46.375Z,4.30
2022-12-25T22:08:25.677Z,4.43
2022-12-25T22:11:12.825Z,3.72
2022-12-25T22:17:58.989Z,5.10
2022-12-25T22:20:35.018Z,5.03
2022-12-25T22:23:03.807Z,3.65
2022-12-25T22:25:42.912Z,3.90
2022-12-25T22:28:35.020Z,4.03
2022-12-25T22:31:48.357Z,3.50
2022-12-25T22:35:26.488Z,3.70
2022-12-25T22:50:41.286Z,3.03
2022-12-25T22:53:35.759Z,3.35
2022-12-25T22:56:18.378Z,3.08
2022-12-25T23:02:15.188Z,3.10
2022-12-25T23:05:09.727Z,3.00
2022-12-25T23:07:59.869Z,3.30
2022-12-25T23:10:39.874Z,3.17
2022-12-25T23:13:37.890Z,3.15
2022-12-25T23:16:37.208Z,3.45
2022-12-25T23:19:29.398Z,3.17
2022-12-25T23:22:23.010Z,3.47
2022-12-25T23:25:11.296Z,3.05
2022-12-25T23:28:03.874Z,3.17
2022-12-25T23:30:51.566Z,3.50
2022-12-25T23:33:32.963Z,2.73
2022-12-25T23:36:16.997Z,3.00
2022-12-25T23:39:11.679Z,2.78
2022-12-25T23:41:48.678Z,3.50
2022-12-25T23:44:31.170Z,3.20
2022-12-25T23:47:28.423Z,3.70
2022-12-25T23:50:08.749Z,3.38
2022-12-25T23:52:43.490Z,3.75
2022-12-25T23:55:55.865Z,3.40
2022-12-25T23:58:47.737Z,3.70
